KGDB

Granite Falls Municipal / Lenzen-Roe-Fagen Memorial Field Airport

Granite Falls, Minnesota, USA
METAR KGDB 182135Z AUTO 14006KT 10SM CLR 28/20 A3001 RMK AO2 T02800195
Observed Flight Rules
Aug-18 @ 21:35 UTC (20 minutes ago) Visual Flight Rules
Wind Visibility Clouds
140° at 6 knots 10 miles
  • Clear skies
Temperatures Readings
Current 28°C / 82°F
Dewpoint 20°C / 68°F
Humidity 62%
Altimeter 30.01" Hg
Pressure 1016 hPa
Elevation 319
METAR KGDB 182135Z AUTO 14006KT 10SM CLR 28/20 A3001 RMK AO2 T02800195
Observed Flight Rules
Aug-18 @ 21:35 UTC
(20 minutes ago)
VFR
Wind Visibility
140° at 6 knots 10 miles
Clouds
  • Clear skies
Temperature Dewpoint
28°C / 82°F 20°C / 68°F
Humidity Altimeter Pressure
62% 30.01" Hg 1016 hPa